Time;durP1;ratioP1;P1;durP2;ratioP2;P2;SDS_P1;SDS_P2;PMS_P1;PMS_P2;Temp;Humidity;BMP_temperature;BMP_pressure;BME280_temperature;BME280_humidity;BME280_pressure;Samples;Min_cycle;Max_cycle;Signal;HPM_P1;HPM_P2
2022/08/11 00:01:03;;;;;;;2.58;1.52;;;17.40;99.90;;;;;;5052606;28;20048;-72
2022/08/11 00:03:29;;;;;;;;;;;17.40;99.90;;;;;;5053369;28;20126;-72
2022/08/11 00:05:56;;;;;;;2.78;1.83;;;17.40;99.90;;;;;;5034689;28;19972;-72
2022/08/11 00:08:29;;;;;;;3.10;1.58;;;17.40;99.90;;;;;;5052834;28;20103;-72
2022/08/11 00:11:11;;;;;;;2.67;1.50;;;17.40;99.90;;;;;;5052627;28;20154;-72
2022/08/11 00:13:44;;;;;;;4.55;1.83;;;17.30;99.90;;;;;;5055210;28;20041;-71
2022/08/11 00:16:24;;;;;;;3.38;2.00;;;17.30;99.90;;;;;;5056923;28;20080;-72
2022/08/11 00:18:53;;;;;;;4.75;2.28;;;17.60;99.90;;;;;;5056851;28;20426;-72
2022/08/11 00:21:20;;;;;;;3.50;1.58;;;17.30;99.90;;;;;;5056548;28;20389;-71
2022/08/11 00:23:58;;;;;;;3.35;1.75;;;17.30;99.90;;;;;;5039053;28;20045;-72
2022/08/11 00:26:25;;;;;;;2.92;2.10;;;17.20;99.90;;;;;;5056709;28;20119;-72
2022/08/11 00:28:51;;;;;;;6.28;2.28;;;17.20;99.90;;;;;;5056627;28;20128;-72
2022/08/11 00:31:32;;;;;;;3.88;2.20;;;17.20;99.90;;;;;;5056628;28;20455;-72
2022/08/11 00:34:00;;;;;;;2.42;1.80;;;17.20;99.90;;;;;;5056619;28;20399;-72
2022/08/11 00:36:46;;;;;;;3.78;2.25;;;17.20;99.90;;;;;;5056561;28;20047;-72
2022/08/11 00:39:14;;;;;;;4.03;2.10;;;17.20;99.90;;;;;;5056129;28;20040;-72
2022/08/11 00:42:01;;;;;;;4.25;2.10;;;17.20;99.90;;;;;;5056482;28;20037;-72
2022/08/11 00:44:58;;;;;;;4.30;2.20;;;17.10;99.90;;;;;;5056461;28;20041;-72
2022/08/11 00:47:41;;;;;;;5.00;2.20;;;17.10;99.90;;;;;;5056099;28;20116;-72
2022/08/11 00:50:22;;;;;;;5.05;2.30;;;17.10;99.90;;;;;;5038427;28;20484;-72
2022/08/11 00:53:03;;;;;;;4.00;2.50;;;17.10;99.90;;;;;;5038097;28;20083;-72
2022/08/11 00:55:56;;;;;;;3.00;1.92;;;17.00;99.90;;;;;;5056211;28;20445;-72
2022/08/11 00:58:28;;;;;;;4.43;2.58;;;17.10;99.90;;;;;;5055868;28;20044;-72
2022/08/11 01:01:16;;;;;;;2.80;1.88;;;17.00;99.90;;;;;;5037933;28;20080;-72
2022/08/11 01:04:06;;;;;;;3.63;2.15;;;17.00;99.90;;;;;;5037871;28;20126;-72
2022/08/11 01:06:50;;;;;;;5.00;2.63;;;17.00;99.90;;;;;;5037858;28;20045;-72
2022/08/11 01:09:18;;;;;;;3.08;2.03;;;16.90;99.90;;;;;;5037764;28;20128;-73
2022/08/11 01:11:50;;;;;;;3.78;2.40;;;16.90;99.90;;;;;;5055834;28;20225;-72
2022/08/11 01:14:24;;;;;;;4.05;2.20;;;16.90;99.90;;;;;;5037686;28;20056;-72
2022/08/11 01:17:08;;;;;;;3.67;2.15;;;16.90;99.90;;;;;;5037662;28;20045;-72
2022/08/11 01:19:40;;;;;;;7.45;2.60;;;16.90;99.90;;;;;;5055722;28;20129;-72
2022/08/11 01:22:24;;;;;;;7.72;2.83;;;16.90;99.90;;;;;;5055196;28;20060;-72
2022/08/11 01:24:56;;;;;;;5.72;2.67;;;16.90;99.90;;;;;;5055226;28;20049;-71
2022/08/11 01:27:40;;;;;;;4.38;2.72;;;16.90;99.90;;;;;;5055396;28;20080;-73
2022/08/11 01:30:27;;;;;;;4.85;2.70;;;16.80;99.90;;;;;;5037333;28;20041;-72
2022/08/11 01:33:34;;;;;;;4.65;2.33;;;16.80;99.90;;;;;;5055497;28;20052;-73
2022/08/11 01:36:37;;;;;;;5.75;2.55;;;16.70;99.90;;;;;;5054961;28;20183;-72
2022/08/11 01:39:05;;;;;;;4.45;2.70;;;16.80;99.90;;;;;;5055406;28;20083;-72
2022/08/11 01:44:36;;;;;;;5.18;2.67;;;16.70;99.90;;;;;;5055291;28;20151;-73
2022/08/11 01:44:37;;;;;;;4.32;2.83;;;16.70;99.90;;;;;;5055151;28;20045;-72
2022/08/11 01:50:36;;;;;;;4.47;2.60;;;16.70;99.90;;;;;;5055121;28;20124;-72
2022/08/11 01:53:23;;;;;;;4.32;2.75;;;16.60;99.90;;;;;;5054839;28;20439;-71
2022/08/11 01:56:26;;;;;;;4.10;2.70;;;16.60;99.90;;;;;;5055028;28;20450;-72
2022/08/11 01:59:21;;;;;;;3.85;2.28;;;16.60;99.90;;;;;;5054896;28;20044;-72
2022/08/11 02:02:18;;;;;;;5.93;2.88;;;16.50;99.90;;;;;;5036773;28;20255;-72
2022/08/11 02:05:04;;;;;;;3.78;2.75;;;16.50;99.90;;;;;;5054760;28;20052;-72
2022/08/11 02:07:55;;;;;;;5.05;3.10;;;16.50;99.90;;;;;;5054823;28;20099;-72
2022/08/11 02:13:47;;;;;;;3.70;2.75;;;16.40;99.90;;;;;;5054723;28;20044;-72
2022/08/11 02:16:37;;;;;;;5.15;2.88;;;16.40;99.90;;;;;;5054352;28;20044;-71
2022/08/11 02:25:10;;;;;;;4.88;2.97;;;16.30;99.90;;;;;;5054116;28;20052;-72
2022/08/11 02:27:51;;;;;;;4.15;2.92;;;16.30;99.90;;;;;;5054457;28;20064;-72
2022/08/11 02:30:24;;;;;;;3.70;2.50;;;16.30;99.90;;;;;;5036293;28;20048;-72
2022/08/11 02:33:29;;;;;;;5.18;2.95;;;16.40;99.90;;;;;;5036222;28;20060;-72
2022/08/11 02:35:57;;;;;;;5.72;3.28;;;16.30;99.90;;;;;;5049137;28;20053;-72
2022/08/11 02:38:45;;;;;;;5.38;2.67;;;16.20;99.90;;;;;;5054254;28;20068;-72
2022/08/11 02:44:22;;;;;;;6.28;3.60;;;16.30;99.90;;;;;;5053747;28;20060;-72
2022/08/11 02:47:26;;;;;;;6.05;3.55;;;16.20;99.90;;;;;;5036036;28;20037;-72
2022/08/11 02:50:10;;;;;;;4.45;3.30;;;16.10;99.90;;;;;;5033803;28;20053;-72
2022/08/11 02:53:05;;;;;;;6.30;3.65;;;16.20;99.90;;;;;;5035837;28;20171;-72
2022/08/11 02:55:46;;;;;;;4.20;2.70;;;16.10;99.90;;;;;;5053927;28;20092;-72
2022/08/11 02:58:34;;;;;;;6.30;3.88;;;16.20;99.90;;;;;;5035757;28;20053;-72
2022/08/11 03:01:14;;;;;;;7.53;3.72;;;16.10;99.90;;;;;;5053570;28;20037;-72
2022/08/11 03:03:50;;;;;;;4.53;3.20;;;16.10;99.90;;;;;;5035688;28;20118;-72
2022/08/11 03:06:39;;;;;;;5.68;3.10;;;16.00;99.90;;;;;;5053675;28;20500;-71
2022/08/11 03:09:26;;;;;;;4.45;2.90;;;16.00;99.90;;;;;;5053714;28;20068;-72
2022/08/11 03:17:58;;;;;;;5.53;3.47;;;16.00;99.90;;;;;;5053542;28;20453;-72
2022/08/11 03:20:47;;;;;;;6.93;4.00;;;15.90;99.90;;;;;;5035695;28;20041;-72
2022/08/11 03:23:47;;;;;;;4.47;3.13;;;15.90;99.90;;;;;;5053016;28;20140;-72
2022/08/11 03:26:37;;;;;;;7.07;3.67;;;15.80;99.90;;;;;;5035314;28;20140;-72
2022/08/11 03:29:14;;;;;;;6.63;3.42;;;15.80;99.90;;;;;;5053438;28;20091;-71
2022/08/11 03:31:52;;;;;;;7.57;4.30;;;15.80;99.90;;;;;;5052964;28;20041;-72
2022/08/11 03:34:24;;;;;;;6.78;3.50;;;15.80;99.90;;;;;;5035112;28;20056;-72
2022/08/11 03:36:59;;;;;;;5.47;3.70;;;16.00;99.90;;;;;;5053153;28;20048;-72
2022/08/11 03:39:27;;;;;;;6.90;3.95;;;15.70;99.90;;;;;;5035076;28;20041;-72
2022/08/11 03:42:11;;;;;;;6.53;3.88;;;15.70;99.90;;;;;;5053103;28;20059;-71
2022/08/11 03:45:08;;;;;;;6.45;3.85;;;15.70;99.90;;;;;;5053066;28;20041;-72
2022/08/11 03:48:12;;;;;;;5.88;3.75;;;15.70;99.90;;;;;;5052781;28;20115;-72
2022/08/11 03:51:16;;;;;;;10.85;4.18;;;15.70;99.90;;;;;;5034922;28;20049;-71
2022/08/11 03:54:06;;;;;;;5.78;4.00;;;15.60;99.90;;;;;;5034646;28;20041;-72
2022/08/11 03:56:43;;;;;;;7.00;4.10;;;15.60;99.90;;;;;;5053086;28;20037;-71
2022/08/11 03:59:27;;;;;;;6.20;3.72;;;15.60;99.90;;;;;;5035134;28;20508;-71
2022/08/11 04:02:14;;;;;;;5.70;3.92;;;15.60;99.90;;;;;;5052714;28;20332;-72
2022/08/11 04:05:10;;;;;;;5.78;3.70;;;15.60;99.90;;;;;;5052532;28;20182;-71
2022/08/11 04:07:59;;;;;;;5.10;3.78;;;15.60;99.90;;;;;;5035153;28;20041;-71
2022/08/11 04:10:54;;;;;;;6.70;4.03;;;15.50;99.90;;;;;;5052911;28;20037;-71
2022/08/11 04:13:35;;;;;;;6.57;4.35;;;15.50;99.90;;;;;;5052826;28;20033;-71
2022/08/11 04:16:26;;;;;;;7.13;3.72;;;15.50;99.90;;;;;;5052858;28;20404;-71
2022/08/11 04:19:09;;;;;;;6.60;4.38;;;15.50;99.90;;;;;;5052809;28;20095;-71
2022/08/11 04:22:00;;;;;;;6.53;4.00;;;15.50;99.90;;;;;;5034568;28;20079;-71
2022/08/11 04:24:46;;;;;;;6.77;4.27;;;15.50;99.90;;;;;;5052654;28;20088;-71
2022/08/11 04:27:28;;;;;;;9.65;4.13;;;15.50;99.90;;;;;;5052726;28;20762;-71
2022/08/11 04:30:16;;;;;;;6.38;4.03;;;15.50;99.90;;;;;;5052685;28;20106;-71
2022/08/11 04:33:27;;;;;;;6.90;4.32;;;15.50;99.90;;;;;;5052685;28;20124;-71
2022/08/11 04:36:04;;;;;;;6.65;3.42;;;15.50;99.90;;;;;;4997398;28;20087;-71
2022/08/11 04:38:57;;;;;;;5.65;3.72;;;15.50;99.90;;;;;;5052320;28;20041;-71
2022/08/11 04:43:19;;;;;;;5.97;3.88;;;15.50;99.90;;;;;;5052566;28;20138;-71
2022/08/11 04:44:51;;;;;;;6.63;3.70;;;15.50;99.90;;;;;;5052439;28;20428;-71
2022/08/11 05:03:04;;;;;;;5.93;3.67;;;15.60;99.90;;;;;;5056109;28;20075;-71
2022/08/11 05:05:55;;;;;;;3.60;2.72;;;15.60;99.90;;;;;;5055628;28;20037;-71
2022/08/11 05:08:24;;;;;;;6.68;3.55;;;15.60;99.90;;;;;;5056017;28;20069;-71
2022/08/11 05:11:07;;;;;;;7.30;3.75;;;15.60;99.90;;;;;;5056202;28;20079;-71
2022/08/11 05:37:09;;;;;;;7.28;4.65;;;16.20;99.90;;;;;;5055449;28;20056;-71
2022/08/11 05:56:31;;;;;;;;;;;16.60;99.90;;;;;;5055470;28;20049;-72
2022/08/11 05:58:58;;;;;;;6.68;4.18;;;16.60;99.90;;;;;;5054968;28;19920;-73
2022/08/11 06:01:29;;;;;;;6.90;4.07;;;16.70;99.90;;;;;;5054915;28;20068;-73
2022/08/11 06:04:13;;;;;;;6.35;3.70;;;16.70;99.90;;;;;;5054552;28;20049;-72
2022/08/11 06:06:53;;;;;;;6.45;4.15;;;16.70;99.90;;;;;;5036885;28;20045;-71
2022/08/11 06:09:34;;;;;;;6.35;4.25;;;16.90;99.90;;;;;;5054575;28;20127;-71
2022/08/11 06:12:07;;;;;;;;;;;17.00;99.90;;;;;;5054012;28;20037;-71
2022/08/11 06:14:40;;;;;;;8.27;4.70;;;17.00;99.90;;;;;;5054501;28;20280;-72
2022/08/11 06:17:06;;;;;;;4.80;3.22;;;17.10;99.90;;;;;;5036492;28;20048;-71
2022/08/11 06:19:40;;;;;;;5.20;3.50;;;17.20;99.90;;;;;;5036514;28;20041;-72
2022/08/11 06:22:09;;;;;;;7.15;3.97;;;17.30;99.90;;;;;;5054160;28;20414;-72
2022/08/11 06:24:39;;;;;;;4.35;3.20;;;17.40;99.90;;;;;;5054405;28;20044;-70
2022/08/11 06:27:06;;;;;;;3.97;3.10;;;17.50;99.90;;;;;;5054493;28;20029;-71
2022/08/11 06:29:40;;;;;;;9.40;4.40;;;17.70;99.90;;;;;;5054380;28;20036;-71
2022/08/11 06:32:11;;;;;;;5.95;3.67;;;17.80;99.90;;;;;;5054122;28;20047;-70
2022/08/11 06:34:51;;;;;;;4.95;3.47;;;18.00;99.90;;;;;;5054149;28;20079;-71
2022/08/11 06:37:30;;;;;;;5.88;3.45;;;18.20;99.90;;;;;;5053905;28;20033;-70
2022/08/11 06:40:13;;;;;;;6.60;4.60;;;18.30;99.90;;;;;;5053812;28;20044;-70
2022/08/11 06:43:02;;;;;;;6.05;3.75;;;18.50;99.90;;;;;;5053812;28;20037;-70
2022/08/11 06:45:47;;;;;;;5.50;3.28;;;18.70;99.90;;;;;;5035999;28;20084;-70
2022/08/11 06:48:19;;;;;;;5.60;3.15;;;18.90;99.90;;;;;;5053543;28;20116;-70
2022/08/11 06:51:11;;;;;;;4.95;3.42;;;19.10;99.90;;;;;;5053802;28;20496;-70
2022/08/11 06:53:46;;;;;;;5.63;3.75;;;19.20;99.90;;;;;;5053940;28;20033;-71
2022/08/11 07:02:10;;;;;;;5.78;3.47;;;19.50;99.90;;;;;;5053802;28;20053;-71
2022/08/11 07:04:49;;;;;;;5.50;3.67;;;19.70;99.90;;;;;;5053689;28;20041;-72
2022/08/11 07:15:55;;;;;;;5.80;3.38;;;20.40;99.90;;;;;;5053571;28;20454;-72
2022/08/11 07:30:02;;;;;;;4.95;3.08;;;21.20;99.90;;;;;;5052944;28;20113;-73
2022/08/11 07:32:32;;;;;;;6.03;3.58;;;21.40;99.90;;;;;;5053284;28;20048;-73
2022/08/11 07:35:12;;;;;;;4.13;2.92;;;21.50;99.90;;;;;;5053154;28;20480;-71
2022/08/11 07:37:42;;;;;;;4.43;2.60;;;21.60;99.90;;;;;;5053201;28;20045;-72
2022/08/11 07:40:09;;;;;;;3.88;2.78;;;21.80;99.90;;;;;;5053224;28;20049;-72
2022/08/11 07:42:37;;;;;;;5.50;2.97;;;21.90;99.90;;;;;;5053163;28;20056;-71
2022/08/11 07:53:29;;;;;;;7.38;3.00;;;22.40;99.90;;;;;;5052984;28;20048;-74
2022/08/11 07:55:57;;;;;;;4.40;2.35;;;22.50;99.90;;;;;;5052843;28;20033;-73
2022/08/11 08:17:56;;;;;;;2.50;1.42;;;23.60;99.90;;;;;;5052404;28;20070;-75
2022/08/11 08:20:27;;;;;;;2.35;1.40;;;23.70;99.90;;;;;;5052433;28;20044;-75
2022/08/11 08:22:57;;;;;;;3.17;1.40;;;23.70;99.90;;;;;;5052219;28;20057;-75
2022/08/11 08:25:29;;;;;;;2.55;1.30;;;23.90;99.90;;;;;;5052380;28;20195;-75
2022/08/11 08:27:55;;;;;;;2.38;1.20;;;24.00;99.90;;;;;;5052636;28;20041;-75
2022/08/11 08:33:08;;;;;;;2.10;1.40;;;24.20;99.90;;;;;;5052529;28;20404;-71
2022/08/11 08:35:36;;;;;;;1.15;1.00;;;24.40;99.90;;;;;;5056449;28;20047;-71
2022/08/11 08:38:02;;;;;;;2.75;1.42;;;24.50;99.90;;;;;;5056498;28;20438;-71
2022/08/11 08:40:28;;;;;;;9.57;2.22;;;24.60;99.90;;;;;;5056070;28;20037;-71
2022/08/11 08:42:57;;;;;;;1.33;0.90;;;24.70;99.90;;;;;;5056355;28;20041;-71
2022/08/11 08:45:26;;;;;;;3.85;1.25;;;24.90;99.90;;;;;;5056301;28;20077;-71
2022/08/11 08:48:05;;;;;;;2.60;1.10;;;25.00;99.90;;;;;;5055976;28;20094;-72
2022/08/11 08:53:30;;;;;;;2.67;1.10;;;25.20;99.90;;;;;;5056187;28;20170;-71
2022/08/11 08:55:58;;;;;;;1.30;0.90;;;25.30;99.90;;;;;;5038464;28;20044;-72
2022/08/11 08:58:25;;;;;;;1.25;0.77;;;25.40;99.90;;;;;;5056170;28;20445;-73
2022/08/11 09:00:53;;;;;;;2.75;0.88;;;25.50;99.90;;;;;;5055782;28;20041;-71
2022/08/11 09:03:22;;;;;;;1.60;0.90;;;25.60;99.90;;;;;;5056061;28;20124;-70
2022/08/11 09:05:48;;;;;;;1.38;0.73;;;25.70;99.90;;;;;;5056146;28;20533;-73
2022/08/11 09:08:18;;;;;;;1.67;0.90;;;25.80;99.90;;;;;;5038441;28;20472;-72
2022/08/11 09:11:48;;;;;;;1.27;0.70;;;25.80;99.90;;;;;;5037741;28;20083;-70
2022/08/11 09:13:34;;;;;;;1.67;0.90;;;25.90;99.90;;;;;;5055471;28;20083;-71
2022/08/11 09:16:04;;;;;;;0.57;0.57;;;26.10;99.90;;;;;;5055750;28;20036;-70
2022/08/11 09:18:31;;;;;;;;;;;26.20;99.90;;;;;;5056123;28;20515;-72
2022/08/11 09:20:57;;;;;;;1.50;0.90;;;26.20;99.90;;;;;;5055659;28;19928;-72
2022/08/11 09:28:54;;;;;;;4.03;1.13;;;26.30;99.90;;;;;;5055495;28;20561;-70
2022/08/11 09:31:21;;;;;;;1.15;0.80;;;26.40;99.90;;;;;;5055487;28;20037;-70
2022/08/11 09:33:50;;;;;;;1.05;0.80;;;26.50;99.50;;;;;;5055404;28;20052;-74
2022/08/11 09:41:50;;;;;;;2.45;0.80;;;26.70;99.10;;;;;;5055210;28;20132;-70
2022/08/11 09:47:02;;;;;;;3.58;0.93;;;26.80;96.90;;;;;;5055531;28;20143;-71
2022/08/11 09:49:29;;;;;;;1.80;0.88;;;26.90;95.40;;;;;;5055126;28;20045;-71
2022/08/11 09:51:55;;;;;;;1.30;0.95;;;26.90;96.20;;;;;;5055141;28;20116;-71
2022/08/11 09:54:24;;;;;;;1.20;0.85;;;27.00;92.00;;;;;;5036892;28;20029;-70
2022/08/11 09:59:37;;;;;;;1.63;0.80;;;27.20;96.40;;;;;;5055034;28;20447;-70
2022/08/11 10:02:06;;;;;;;1.38;0.70;;;27.30;94.40;;;;;;5055048;28;20033;-70
2022/08/11 10:04:43;;;;;;;1.30;0.70;;;27.40;94.30;;;;;;5054843;28;20033;-70
2022/08/11 10:07:09;;;;;;;1.30;0.80;;;27.60;92.60;;;;;;5054884;28;20037;-73
2022/08/11 10:09:51;;;;;;;1.02;0.82;;;;;;;;;;5036596;28;20029;-70
2022/08/11 10:12:30;;;;;;;1.30;0.80;;;;;;;;;;5054585;28;20106;-70
2022/08/11 10:18:40;;;;;;;1.15;0.68;;;;;;;;;;5054322;28;20059;-70
2022/08/11 10:20:33;;;;;;;0.80;0.80;;;28.20;90.90;;;;;;5054235;28;20045;-73
2022/08/11 10:28:31;;;;;;;1.13;0.80;;;28.10;89.60;;;;;;5036302;28;20194;-75
2022/08/11 10:33:59;;;;;;;1.38;0.90;;;;;;;;;;5054215;28;20074;-70
2022/08/11 10:36:41;;;;;;;1.55;0.85;;;28.20;86.20;;;;;;5053966;28;20077;-70
2022/08/11 10:39:09;;;;;;;0.70;0.70;;;28.10;87.30;;;;;;5054177;28;20100;-70
2022/08/11 10:44:21;;;;;;;1.45;0.90;;;28.10;84.80;;;;;;5036090;28;20045;-70
2022/08/11 10:49:32;;;;;;;1.00;0.77;;;28.10;86.30;;;;;;5053682;28;20041;-70
2022/08/11 11:00:15;;;;;;;1.02;0.90;;;28.00;82.60;;;;;;5053815;28;20117;-69
2022/08/11 11:02:42;;;;;;;0.88;0.82;;;28.00;81.50;;;;;;5053648;28;20056;-71
2022/08/11 11:05:20;;;;;;;1.60;0.80;;;28.00;83.10;;;;;;5053290;28;20044;-77
2022/08/11 11:07:54;;;;;;;1.13;0.70;;;28.00;85.20;;;;;;5053578;28;20083;-76
2022/08/11 11:10:20;;;;;;;0.93;0.73;;;28.10;84.70;;;;;;5035572;28;20059;-77
2022/08/11 11:18:34;;;;;;;1.38;0.75;;;28.10;83.10;;;;;;5053357;28;20045;-72
2022/08/11 11:21:14;;;;;;;2.13;0.93;;;28.20;84.10;;;;;;5035107;28;20056;-72
2022/08/11 11:23:47;;;;;;;1.33;0.80;;;28.20;80.50;;;;;;5035538;28;20048;-71
2022/08/11 11:26:34;;;;;;;2.33;0.73;;;28.10;82.00;;;;;;5052924;28;20119;-71
2022/08/11 11:29:53;;;;;;;1.38;0.98;;;28.20;77.90;;;;;;5018706;28;20049;-71
2022/08/11 11:32:34;;;;;;;1.00;0.63;;;28.10;77.30;;;;;;5003494;28;20132;-71
2022/08/11 11:35:20;;;;;;;1.17;0.77;;;28.20;81.00;;;;;;5035378;28;20048;-72
2022/08/11 11:37:48;;;;;;;1.48;0.85;;;28.20;78.10;;;;;;5052321;28;20389;-71
2022/08/11 11:40:21;;;;;;;2.33;0.70;;;28.30;80.90;;;;;;5034928;28;20063;-71
2022/08/11 11:42:48;;;;;;;1.52;0.70;;;28.30;78.60;;;;;;5053060;28;20040;-71
2022/08/11 11:45:17;;;;;;;0.77;0.70;;;28.40;78.30;;;;;;5034900;28;20045;-71
2022/08/11 11:47:44;;;;;;;0.70;0.70;;;28.40;79.00;;;;;;5052933;28;20111;-71
2022/08/11 11:50:11;;;;;;;0.85;0.80;;;28.40;78.70;;;;;;5034870;28;20067;-70
2022/08/11 11:52:39;;;;;;;1.08;0.80;;;28.50;79.60;;;;;;5053030;28;20485;-70
2022/08/11 11:55:06;;;;;;;1.02;0.80;;;28.50;75.50;;;;;;5034915;28;20049;-70
2022/08/11 12:03:08;;;;;;;0.88;0.80;;;28.60;76.80;;;;;;5052562;28;20055;-70
2022/08/11 12:05:36;;;;;;;0.80;0.70;;;28.50;77.40;;;;;;5052760;28;20044;-71
2022/08/11 12:08:14;;;;;;;1.35;0.90;;;28.60;78.90;;;;;;5052560;28;20037;-70
2022/08/11 12:13:41;;;;;;;1.15;0.70;;;28.70;73.50;;;;;;5038842;28;20041;-70
2022/08/11 12:16:09;;;;;;;0.57;0.57;;;28.80;78.70;;;;;;5056531;28;20049;-73
2022/08/11 12:18:36;;;;;;;0.60;0.60;;;28.80;74.10;;;;;;5056688;28;20045;-72
2022/08/11 12:21:03;;;;;;;1.90;0.90;;;28.90;74.40;;;;;;5022521;28;20045;-72
2022/08/11 12:29:01;;;;;;;0.88;0.70;;;29.00;71.50;;;;;;5056530;28;20404;-72
2022/08/11 12:31:32;;;;;;;1.58;1.00;;;29.00;75.10;;;;;;5038637;28;20041;-71
2022/08/11 12:34:04;;;;;;;1.30;0.88;;;29.10;75.20;;;;;;5056285;28;20037;-71
2022/08/11 12:36:35;;;;;;;2.35;0.80;;;29.10;75.70;;;;;;5056147;28;20045;-71
2022/08/11 12:39:05;;;;;;;1.02;0.90;;;29.10;74.90;;;;;;5056403;28;20087;-71
2022/08/11 12:47:02;;;;;;;0.82;0.65;;;29.20;75.30;;;;;;5056100;28;20051;-71
2022/08/11 12:52:24;;;;;;;4.18;0.90;;;29.20;75.60;;;;;;5056025;28;20056;-70
2022/08/11 12:54:56;;;;;;;1.75;0.68;;;29.20;74.10;;;;;;5038086;28;20424;-69
2022/08/11 13:05:57;;;;;;;1.17;0.70;;;29.20;69.50;;;;;;5055797;28;20413;-72
2022/08/11 13:08:24;;;;;;;0.60;0.60;;;29.20;72.60;;;;;;5055652;28;20063;-72
2022/08/11 13:13:41;;;;;;;1.48;0.82;;;29.30;74.10;;;;;;5055571;28;20044;-72
2022/08/11 13:16:08;;;;;;;0.68;0.60;;;29.40;74.20;;;;;;5055870;28;20041;-72
2022/08/11 13:18:34;;;;;;;0.80;0.70;;;29.50;73.70;;;;;;5037669;28;20049;-71
2022/08/11 13:21:00;;;;;;;1.38;0.73;;;29.50;73.20;;;;;;5054886;28;20040;-71
2022/08/11 13:23:28;;;;;;;1.65;0.60;;;29.50;70.20;;;;;;5055123;28;20060;-71
2022/08/11 13:25:55;;;;;;;2.47;0.68;;;29.60;72.20;;;;;;5055567;28;20063;-71
2022/08/11 13:28:22;;;;;;;1.30;0.70;;;29.60;72.20;;;;;;5055550;28;20066;-71
2022/08/11 13:33:52;;;;;;;0.80;0.57;;;29.60;72.00;;;;;;5055232;28;20052;-71
2022/08/11 13:36:20;;;;;;;0.50;0.50;;;29.80;70.60;;;;;;5055259;28;20080;-72
2022/08/11 13:38:48;;;;;;;0.75;0.73;;;29.60;69.60;;;;;;5055478;28;20392;-71
2022/08/11 13:43:58;;;;;;;5.45;0.82;;;29.70;71.20;;;;;;5055319;28;20391;-68
2022/08/11 13:46:26;;;;;;;0.98;0.70;;;29.70;67.80;;;;;;5055165;28;20045;-68
2022/08/11 13:48:55;;;;;;;0.90;0.65;;;29.80;68.30;;;;;;5037119;28;20045;-69
2022/08/11 13:51:32;;;;;;;1.08;0.77;;;29.80;69.40;;;;;;5055270;28;20047;-68
2022/08/11 13:54:04;;;;;;;1.02;0.50;;;29.80;70.00;;;;;;5036859;28;20049;-69
2022/08/11 13:56:31;;;;;;;1.40;0.70;;;29.90;71.10;;;;;;5037150;28;20059;-68
2022/08/11 13:58:59;;;;;;;0.85;0.77;;;29.90;71.90;;;;;;5036753;28;20060;-68
2022/08/11 14:01:29;;;;;;;0.80;0.60;;;30.00;71.30;;;;;;5054691;28;20091;-68
2022/08/11 14:04:03;;;;;;;0.63;0.60;;;30.30;70.10;;;;;;5036981;28;20496;-68
2022/08/11 14:06:30;;;;;;;1.00;0.63;;;30.30;70.20;;;;;;5036524;28;20048;-70
2022/08/11 14:08:56;;;;;;;0.80;0.70;;;30.30;69.20;;;;;;5054740;28;20033;-70
2022/08/11 14:14:09;;;;;;;1.90;1.05;;;30.20;69.90;;;;;;5054671;28;20041;-68
2022/08/11 14:16:41;;;;;;;1.55;0.80;;;30.00;68.00;;;;;;5036688;28;20059;-69
2022/08/11 14:19:11;;;;;;;1.02;0.63;;;30.10;69.80;;;;;;5054603;28;20068;-70
2022/08/11 14:24:28;;;;;;;0.90;0.60;;;30.10;70.50;;;;;;5036132;28;20045;-69
2022/08/11 14:26:54;;;;;;;1.20;0.70;;;30.10;70.40;;;;;;5036289;28;20073;-69
2022/08/11 14:29:24;;;;;;;0.60;0.60;;;30.10;69.20;;;;;;5054314;28;20067;-70
2022/08/11 14:31:56;;;;;;;0.95;0.65;;;30.10;69.30;;;;;;5053126;28;20507;-70
2022/08/11 14:34:24;;;;;;;1.00;0.77;;;30.20;68.80;;;;;;5054033;28;20033;-69
2022/08/11 14:36:55;;;;;;;0.68;0.50;;;30.20;69.90;;;;;;5036419;28;20535;-71
2022/08/11 14:39:27;;;;;;;1.27;0.90;;;30.20;68.20;;;;;;5054202;28;20040;-71
2022/08/11 14:47:51;;;;;;;0.88;0.73;;;30.10;67.10;;;;;;5054079;28;20067;-69
2022/08/11 14:50:23;;;;;;;0.73;0.68;;;30.10;69.40;;;;;;5054057;28;20397;-71
2022/08/11 14:52:54;;;;;;;0.82;0.65;;;30.00;68.80;;;;;;5053922;28;20042;-70
2022/08/11 14:58:10;;;;;;;0.77;0.70;;;30.20;69.80;;;;;;5053848;28;20125;-70
2022/08/11 15:00:36;;;;;;;1.73;0.88;;;30.10;67.60;;;;;;5053824;28;20098;-69
2022/08/11 15:03:10;;;;;;;1.60;0.90;;;30.10;69.20;;;;;;5035889;28;20044;-69
2022/08/11 15:05:43;;;;;;;0.60;0.60;;;30.20;70.10;;;;;;5053566;28;20037;-67
2022/08/11 15:08:11;;;;;;;0.80;0.60;;;30.10;67.90;;;;;;5053369;28;20044;-68
2022/08/11 15:10:37;;;;;;;0.80;0.55;;;30.20;69.50;;;;;;5053701;28;20066;-68
2022/08/11 15:13:03;;;;;;;0.82;0.70;;;30.20;68.70;;;;;;5053334;28;20032;-68
2022/08/11 15:18:18;;;;;;;1.25;0.70;;;30.50;69.60;;;;;;5053194;28;20056;-69
2022/08/11 15:37:25;;;;;;;1.02;0.70;;;30.60;68.20;;;;;;5053285;28;20049;-70
2022/08/11 15:37:26;;;;;;;1.42;0.80;;;30.80;70.60;;;;;;5053251;28;20419;-70
2022/08/11 15:45:49;;;;;;;1.15;0.80;;;30.90;67.30;;;;;;5052908;28;19927;-69
2022/08/11 15:48:26;;;;;;;1.27;0.68;;;30.70;68.80;;;;;;5052857;28;20049;-71
2022/08/11 15:50:56;;;;;;;1.88;0.70;;;30.80;69.80;;;;;;5052961;28;20079;-70
2022/08/11 15:53:39;;;;;;;0.70;0.60;;;30.60;70.10;;;;;;5052620;28;20044;-70
2022/08/11 15:56:07;;;;;;;0.93;0.80;;;30.50;69.70;;;;;;5052943;28;20095;-69
2022/08/11 16:04:14;;;;;;;1.40;0.70;;;30.30;70.60;;;;;;5052501;28;19966;-69
2022/08/11 16:06:42;;;;;;;0.60;0.60;;;30.40;69.90;;;;;;5052401;28;20077;-70
2022/08/11 16:09:08;;;;;;;1.45;0.70;;;30.30;70.70;;;;;;5052882;28;20052;-70
2022/08/11 16:11:36;;;;;;;0.93;0.70;;;30.20;70.70;;;;;;5052807;28;20033;-70
2022/08/11 16:16:49;;;;;;;1.52;0.82;;;30.60;70.90;;;;;;5052686;28;20056;-71
2022/08/11 16:19:17;;;;;;;1.85;0.98;;;31.00;70.50;;;;;;5052754;28;20044;-68
2022/08/11 16:21:44;;;;;;;1.20;0.88;;;31.00;69.90;;;;;;5052542;28;20041;-69
2022/08/11 16:24:13;;;;;;;1.73;0.80;;;31.10;70.10;;;;;;5052694;28;20053;-68
2022/08/11 16:26:42;;;;;;;0.77;0.70;;;31.30;69.90;;;;;;5052614;28;20451;-67
2022/08/11 16:29:09;;;;;;;1.50;0.70;;;31.80;70.10;;;;;;5052697;28;20120;-68
2022/08/11 16:31:37;;;;;;;3.35;1.10;;;32.70;70.20;;;;;;5052655;28;20325;-67
2022/08/11 16:34:04;;;;;;;1.17;0.90;;;;;;;;;;5052653;28;20033;-68
2022/08/11 16:39:19;;;;;;;1.05;0.90;;;;;;;;;;5052596;28;20455;-68
2022/08/11 16:47:18;;;;;;;0.90;0.80;;;37.10;64.50;;;;;;5052483;28;20052;-68
2022/08/11 16:49:52;;;;;;;2.33;0.90;;;37.80;63.40;;;;;;5052445;28;20130;-72
2022/08/11 16:52:19;;;;;;;1.13;0.85;;;38.30;62.30;;;;;;5052450;28;20139;-69
2022/08/11 16:54:46;;;;;;;0.82;0.70;;;38.60;60.40;;;;;;5035280;28;20044;-69
2022/08/11 17:00:11;;;;;;;2.30;0.93;;;39.00;62.60;;;;;;5038078;28;20056;-68
2022/08/11 17:13:59;;;;;;;1.52;1.00;;;39.70;60.10;;;;;;5055824;28;20045;-66
2022/08/11 17:16:35;;;;;;;1.30;1.00;;;39.70;59.40;;;;;;5055746;28;20082;-65
2022/08/11 17:19:04;;;;;;;1.40;1.00;;;39.90;58.70;;;;;;5055377;28;20053;-68
2022/08/11 17:24:44;;;;;;;1.42;0.88;;;39.80;58.90;;;;;;5055588;28;20048;-70
2022/08/11 17:27:18;;;;;;;2.20;0.90;;;39.20;58.30;;;;;;5055644;28;20048;-67
2022/08/11 17:29:50;;;;;;;1.33;0.93;;;38.50;59.80;;;;;;5055359;28;20044;-69
2022/08/11 17:35:32;;;;;;;1.05;0.90;;;36.30;60.00;;;;;;5055420;28;20068;-72
2022/08/11 17:38:00;;;;;;;1.35;1.10;;;35.10;61.10;;;;;;5055357;28;20111;-68
2022/08/11 17:40:27;;;;;;;0.70;0.70;;;33.70;62.70;;;;;;5055497;28;20037;-69
2022/08/11 17:48:38;;;;;;;1.25;0.95;;;31.30;65.50;;;;;;5054914;28;20052;-66
2022/08/11 17:51:07;;;;;;;1.65;0.98;;;30.70;66.20;;;;;;5054899;28;20051;-67
2022/08/11 18:04:48;;;;;;;1.60;0.90;;;28.70;67.80;;;;;;5054523;28;20044;-69
